Joy — V2EI9 — position and weather

sailwx.info

Track history (hours):
 
Tides and Currents Weather Stations Pressure Air Temp Water Temp Dewpoint Dewpoint Depression Visibility Wind Speed Wind Dir Waves Ship Positions

Joy

Last reported at 2014-Dec-22 20:32 UTC. Time now 2014-Dec-22 21:20 UTC.
Position N 51°05' E 003°45'.

Length 105 m; draft 6.2 m.

Type: Cargo ship. MMSI: 305444000.

Date/timePositionNaut miles runAvg speedWind from/ knotsBaromVisibWave heightAir tempDewpointWater temp
2014-Dec-22 20:32N 51°05' E 003°45'0 0.0
2014-Dec-22 19:32N 51°05' E 003°45'0 0.0
2014-Dec-22 18:32N 51°05' E 003°45'0 0.0
2014-Dec-22 17:32N 51°05' E 003°45'0 0.0
2014-Dec-22 16:26N 51°05' E 003°45'0 0.0
2014-Dec-22 15:32N 51°05' E 003°45'0 0.0
2014-Dec-22 14:32N 51°05' E 003°45'0 0.0
2014-Dec-22 13:29N 51°05' E 003°45'0 0.0
2014-Dec-22 12:32N 51°05' E 003°45'0 0.0
2014-Dec-22 11:32N 51°05' E 003°45'0 0.0
2014-Dec-22 10:33N 51°05' E 003°45'1 1.4
2014-Dec-22 09:33N 51°07' E 003°45'7 7.2
2014-Dec-22 08:34N 51°13' E 003°48'6 6.3
2014-Dec-22 07:33N 51°20' E 003°49'2 2.5
2014-Dec-22 06:33N 51°21' E 003°46'6 6.3
2014-Dec-22 05:33N 51°25' E 003°38'6 6.4
2014-Dec-22 04:33N 51°25' E 003°28'7 7.0
2014-Dec-22 03:33N 51°24' E 003°16'9 8.3
2014-Dec-22 02:27N 51°24' E 003°02'9 9.9
2014-Dec-22 01:33N 51°22' E 002°48'9 8.7
2014-Dec-22 00:33N 51°21' E 002°34'5 4.9
2014-Dec-21 23:31N 51°21' E 002°26'8 8.3
2014-Dec-21 22:33N 51°17' E 002°15'1010.3
2014-Dec-21 21:33N 51°13' E 002°00'9 9.1
2014-Dec-21 20:34N 51°08' E 001°48'8 7.6
2014-Dec-21 19:33N 51°02' E 001°40'9 7.6
2014-Dec-21 18:22N 50°56' E 001°30'  
2014-Dec-19 06:29N 46°05' W 002°51'8 7.8
2014-Dec-19 05:28N 45°59' W 002°43'32 8.0
2014-Dec-19 01:30N 45°46' W 002°01'47 7.8
2014-Dec-18 19:27N 45°30' W 000°58'1612.9
2014-Dec-18 18:12N 45°17' W 000°45'  
Track history (hours):
 
Tides and Currents Weather Stations Pressure Air Temp Water Temp Dewpoint Dewpoint Depression Visibility Wind Speed Wind Dir Waves Ship Positions

Joy

Last reported at 2014-Dec-22 20:32 UTC. Time now 2014-Dec-22 21:20 UTC.
Position N 51°05' E 003°45'.

Length 105 m; draft 6.2 m.

Type: Cargo ship. MMSI: 305444000.

Date/timePositionNaut miles runAvg speedWind from/ knotsBaromVisibWave heightAir tempDewpointWater temp
2014-Dec-22 20:32N 51°05' E 003°45'0 0.0
2014-Dec-22 19:32N 51°05' E 003°45'0 0.0
2014-Dec-22 18:32N 51°05' E 003°45'0 0.0
2014-Dec-22 17:32N 51°05' E 003°45'0 0.0
2014-Dec-22 16:26N 51°05' E 003°45'0 0.0
2014-Dec-22 15:32N 51°05' E 003°45'0 0.0
2014-Dec-22 14:32N 51°05' E 003°45'0 0.0
2014-Dec-22 13:29N 51°05' E 003°45'0 0.0
2014-Dec-22 12:32N 51°05' E 003°45'0 0.0
2014-Dec-22 11:32N 51°05' E 003°45'0 0.0
2014-Dec-22 10:33N 51°05' E 003°45'1 1.4
2014-Dec-22 09:33N 51°07' E 003°45'7 7.2
2014-Dec-22 08:34N 51°13' E 003°48'6 6.3
2014-Dec-22 07:33N 51°20' E 003°49'2 2.5
2014-Dec-22 06:33N 51°21' E 003°46'6 6.3
2014-Dec-22 05:33N 51°25' E 003°38'6 6.4
2014-Dec-22 04:33N 51°25' E 003°28'7 7.0
2014-Dec-22 03:33N 51°24' E 003°16'9 8.3
2014-Dec-22 02:27N 51°24' E 003°02'9 9.9
2014-Dec-22 01:33N 51°22' E 002°48'9 8.7
2014-Dec-22 00:33N 51°21' E 002°34'5 4.9
2014-Dec-21 23:31N 51°21' E 002°26'8 8.3
2014-Dec-21 22:33N 51°17' E 002°15'1010.3
2014-Dec-21 21:33N 51°13' E 002°00'9 9.1
2014-Dec-21 20:34N 51°08' E 001°48'8 7.6
2014-Dec-21 19:33N 51°02' E 001°40'9 7.6
2014-Dec-21 18:22N 50°56' E 001°30'  
2014-Dec-19 06:29N 46°05' W 002°51'8 7.8
2014-Dec-19 05:28N 45°59' W 002°43'32 8.0
2014-Dec-19 01:30N 45°46' W 002°01'47 7.8
2014-Dec-18 19:27N 45°30' W 000°58'1612.9
2014-Dec-18 18:12N 45°17' W 000°45'  

Dump ship's entire track history